Wetterdaten: aktuell Samstag, 25.09.2021 18:00
Datum Zeit Technik Temp. A. +5c Boden Temp. A. min Temp. A. max Bl.Temp 1 BodenTemp 1 BodenTemp 2 BodenTemp 3 BodenTemp 4 Feuchte I. Feuchte A. BlattFeu 1 Bod.Feucht 1 Bod.Feucht 2 Bod.Feucht 3 Bod.Feucht 4 Luftdruck Regen Wind Richtung Richtung Sonnenschein ET UV Solar Taupunkt Windchill Windböen Empfang
25.09.2021 18:00 24,2 °C 22,9 °C 25,6 °C 22,8 °C 23,8 °C 19,4 °C 19,4 °C 18,3 °C 17,2 °C 16,7 °C 48 % 71 % 0 lf 32 cb 116 cb 44 cb 19 cb 1015,3 hPa 0,0 l/m² 1,6 km/h (1 Bft) W 270 ° 30 min 0,102 mm 0,3 UV-I 119 W/m² 17,4 °C 22,9 °C 6,4 km/h (2 Bft) 86 %
25.09.2021 17:00 24,2 °C 23,6 °C 24,4 °C 23,5 °C 24,6 °C 20,0 °C 20,0 °C 18,3 °C 16,7 °C 16,7 °C 48 % 66 % 0 lf 30 cb 114 cb 44 cb 19 cb 1015,4 hPa 0,0 l/m² 3,2 km/h (1 Bft) W 270 ° 60 min 0,229 mm 1,1 UV-I 211 W/m² 16,9 °C 23,6 °C 6,4 km/h (2 Bft) 84 %
25.09.2021 16:00 24,1 °C 23,8 °C 26,1 °C 23,7 °C 23,9 °C 20,0 °C 20,0 °C 18,3 °C 16,7 °C 16,7 °C 48 % 64 % 0 lf 28 cb 112 cb 44 cb 19 cb 1015,7 hPa 0,0 l/m² 3,2 km/h (1 Bft) W 270 ° 60 min 0,229 mm 1,7 UV-I 313 W/m² 16,6 °C 23,8 °C 6,4 km/h (2 Bft) 83 %
25.09.2021 15:00 23,7 °C 23,5 °C 24,4 °C 23,1 °C 23,5 °C 20,6 °C 20,6 °C 17,8 °C 16,7 °C 16,7 °C 49 % 64 % 0 lf 26 cb 110 cb 45 cb 18 cb 1016,3 hPa 0,0 l/m² 3,2 km/h (1 Bft) W 270 ° 60 min 0,356 mm 2,9 UV-I 506 W/m² 16,3 °C 23,5 °C 9,7 km/h (2 Bft) 83 %
25.09.2021 14:00 23,0 °C 22,7 °C 22,8 °C 21,6 °C 22,8 °C 21,1 °C 21,1 °C 17,2 °C 16,1 °C 17,2 °C 50 % 64 % 0 lf 24 cb 107 cb 44 cb 19 cb 1016,9 hPa 0,0 l/m² 3,2 km/h (1 Bft) W 270 ° 60 min 0,381 mm 3,5 UV-I 591 W/m² 15,5 °C 22,7 °C 9,7 km/h (2 Bft) 86 %
25.09.2021 13:00 22,3 °C 21,3 °C 21,1 °C 20,8 °C 21,4 °C 21,1 °C 21,1 °C 16,1 °C 16,1 °C 17,2 °C 50 % 68 % 0 lf 22 cb 105 cb 44 cb 18 cb 1017,2 hPa 0,0 l/m² 3,2 km/h (1 Bft) W 270 ° 60 min 0,356 mm 3,4 UV-I 590 W/m² 15,1 °C 21,3 °C 12,9 km/h (3 Bft) 83 %
25.09.2021 12:00 22,5 °C 19,8 °C 19,4 °C 18,9 °C 19,8 °C 19,4 °C 19,4 °C 16,1 °C 16,1 °C 17,2 °C 48 % 72 % 0 lf 22 cb 106 cb 45 cb 18 cb 1017,5 hPa 0,0 l/m² 3,2 km/h (1 Bft) W-NW 292 ° 60 min 0,305 mm 2,9 UV-I 540 W/m² 14,6 °C 19,8 °C 8,0 km/h (2 Bft) 85 %
25.09.2021 11:00 22,7 °C 18,2 °C 17,2 °C 17,2 °C 18,2 °C 17,2 °C 17,2 °C 15,6 °C 16,1 °C 17,2 °C 49 % 76 % 0 lf 22 cb 106 cb 45 cb 18 cb 1017,9 hPa 0,0 l/m² 3,2 km/h (1 Bft) N-NW 337 ° 60 min 0,229 mm 2,1 UV-I 441 W/m² 13,9 °C 18,2 °C 6,4 km/h (2 Bft) 84 %
25.09.2021 10:00 23,5 °C 16,4 °C 16,1 °C 15,0 °C 16,4 °C 15,0 °C 15,0 °C 15,6 °C 16,1 °C 17,2 °C 44 % 76 % 0 lf 21 cb 104 cb 44 cb 18 cb 1018,2 hPa 0,0 l/m² 1,6 km/h (1 Bft) O-NO 67 ° 60 min 0,152 mm 1,2 UV-I 319 W/m² 12,2 °C 16,4 °C 6,4 km/h (2 Bft) 88 %
25.09.2021 09:00 23,8 °C 13,7 °C 17,8 °C 12,5 °C 13,7 °C 13,9 °C 13,9 °C 15,6 °C 16,1 °C 17,2 °C 45 % 82 % 0 lf 20 cb 103 cb 44 cb 18 cb 1017,8 hPa 0,0 l/m² 1,6 km/h (1 Bft) SO 135 ° 0 min 0,025 mm 0,2 UV-I 82 W/m² 10,7 °C 13,7 °C 12,9 km/h (3 Bft) 72 %
25.09.2021 08:00 23,8 °C 11,9 °C 11,7 °C 11,8 °C 12,2 °C 13,9 °C 13,9 °C 16,1 °C 16,1 °C 17,2 °C 45 % 87 % 1 lf 20 cb 103 cb 44 cb 18 cb 1017,9 hPa 0,0 l/m² 1,6 km/h (1 Bft) O-NO 67 ° 0 min 0,000 mm 0,0 UV-I 13 W/m² 9,8 °C 11,9 °C 12,9 km/h (3 Bft) 83 %
25.09.2021 07:00 23,8 °C 11,8 °C 11,7 °C 11,7 °C 12,7 °C 14,4 °C 14,4 °C 16,1 °C 16,7 °C 17,2 °C 45 % 87 % 1 lf 20 cb 102 cb 44 cb 18 cb 1017,8 hPa 0,0 l/m² 1,6 km/h (1 Bft) O-SO 112 ° 0 min 0,000 mm 0,0 UV-I 0 W/m² 9,7 °C 11,8 °C 4,8 km/h (1 Bft) 78 %
25.09.2021 06:00 23,9 °C 12,1 °C 11,7 °C 11,9 °C 12,2 °C 14,4 °C 14,4 °C 16,1 °C 16,7 °C 17,2 °C 44 % 87 % 1 lf 20 cb 101 cb 44 cb 18 cb 1017,8 hPa 0,0 l/m² 1,6 km/h (1 Bft) O-NO 67 ° 0 min 0,000 mm 0,0 UV-I 0 W/m² 10,0 °C 12,1 °C 8,0 km/h (2 Bft) 77 %
25.09.2021 05:00 23,9 °C 12,7 °C 12,2 °C 12,4 °C 12,7 °C 15,0 °C 15,0 °C 16,1 °C 16,7 °C 17,2 °C 45 % 86 % 1 lf 20 cb 100 cb 44 cb 18 cb 1017,7 hPa 0,0 l/m² 1,6 km/h (1 Bft) N 360 ° 0 min 0,025 mm 0,0 UV-I 0 W/m² 10,4 °C 12,7 °C 12,9 km/h (3 Bft) 69 %
25.09.2021 04:00 23,9 °C 12,8 °C 12,2 °C 12,7 °C 13,6 °C 15,0 °C 15,0 °C 16,7 °C 16,7 °C 17,2 °C 45 % 87 % 1 lf 20 cb 100 cb 44 cb 18 cb 1018,2 hPa 0,0 l/m² 1,6 km/h (1 Bft) N 360 ° 0 min 0,025 mm 0,0 UV-I 0 W/m² 10,7 °C 12,8 °C 8,0 km/h (2 Bft) 70 %
25.09.2021 03:00 24,0 °C 12,9 °C 12,2 °C 12,9 °C 13,4 °C 15,0 °C 15,0 °C 16,7 °C 16,7 °C 17,2 °C 45 % 87 % 1 lf 19 cb 100 cb 44 cb 18 cb 1018,1 hPa 0,0 l/m² 1,6 km/h (1 Bft) N 360 ° 0 min 0,025 mm 0,0 UV-I 0 W/m² 10,8 °C 12,9 °C 8,0 km/h (2 Bft) 75 %
25.09.2021 02:00 24,1 °C 13,4 °C 12,8 °C 13,3 °C 13,7 °C 15,6 °C 15,6 °C 16,7 °C 16,7 °C 16,7 °C 45 % 85 % 1 lf 19 cb 99 cb 44 cb 18 cb 1018,0 hPa 0,0 l/m² 1,6 km/h (1 Bft) O-NO 67 ° 0 min 0,025 mm 0,0 UV-I 0 W/m² 10,9 °C 13,4 °C 12,9 km/h (3 Bft) 73 %
25.09.2021 01:00 24,1 °C 13,7 °C 12,8 °C 13,6 °C 13,8 °C 15,6 °C 15,6 °C 17,2 °C 16,7 °C 16,7 °C 45 % 85 % 1 lf 19 cb 99 cb 44 cb 18 cb 1018,3 hPa 0,0 l/m² 1,6 km/h (1 Bft) O-NO 67 ° 0 min 0,025 mm 0,0 UV-I 0 W/m² 11,2 °C 13,7 °C 6,4 km/h (2 Bft) 73 %
25.09.2021 00:00 24,2 °C 14,6 °C 13,9 °C 14,5 °C 14,7 °C 16,1 °C 16,1 °C 17,2 °C 17,2 °C 16,7 °C 45 % 82 % 0 lf 19 cb 99 cb 44 cb 18 cb 1018,3 hPa 0,0 l/m² 3,2 km/h (1 Bft) N 360 ° 0 min 0,025 mm 0,0 UV-I 0 W/m² 11,6 °C 14,6 °C 11,3 km/h (2 Bft) 83 %
24.09.2021 23:00 24,2 °C 14,5 °C 13,9 °C 14,4 °C 14,6 °C 16,1 °C 16,1 °C 17,2 °C 17,2 °C 16,7 °C 45 % 84 % 1 lf 19 cb 98 cb 44 cb 17 cb 1018,4 hPa 0,0 l/m² 1,6 km/h (1 Bft) N 360 ° 0 min 0,025 mm 0,0 UV-I 0 W/m² 11,8 °C 14,5 °C 6,4 km/h (2 Bft) 84 %
24.09.2021 22:00 24,2 °C 15,1 °C 13,9 °C 15,1 °C 15,4 °C 16,7 °C 16,7 °C 17,8 °C 17,2 °C 16,7 °C 44 % 84 % 1 lf 19 cb 99 cb 44 cb 17 cb 1018,3 hPa 0,0 l/m² 1,6 km/h (1 Bft) N 360 ° 0 min 0,025 mm 0,0 UV-I 0 W/m² 12,4 °C 15,1 °C 4,8 km/h (1 Bft) 80 %
24.09.2021 21:00 24,2 °C 15,8 °C 13,9 °C 15,6 °C 15,9 °C 17,2 °C 17,2 °C 17,8 °C 17,2 °C 16,7 °C 44 % 83 % 1 lf 19 cb 98 cb 44 cb 17 cb 1018,0 hPa 0,0 l/m² 0,0 km/h (0 Bft) O-NO 67 ° 0 min 0,000 mm 0,0 UV-I 0 W/m² 12,9 °C 15,8 °C 6,4 km/h (2 Bft) 78 %
24.09.2021 20:00 24,3 °C 16,0 °C 15,0 °C 16,0 °C 17,2 °C 17,2 °C 17,2 °C 17,8 °C 16,7 °C 16,7 °C 44 % 85 % 1 lf 18 cb 97 cb 40 cb 16 cb 1017,5 hPa 0,0 l/m² 0,0 km/h (0 Bft) S-SW 202 ° 0 min 0,025 mm 0,0 UV-I 0 W/m² 13,5 °C 16,0 °C 3,2 km/h (1 Bft) 70 %
24.09.2021 19:00 24,4 °C 18,3 °C 18,3 °C 18,2 °C 19,9 °C 17,8 °C 17,8 °C 17,8 °C 16,7 °C 16,7 °C 43 % 80 % 1 lf 80 cb 127 cb 41 cb 20 cb 1016,9 hPa 0,0 l/m² 0,0 km/h (0 Bft) N 0 ° 0 min 0,025 mm 0,0 UV-I 18 W/m² 14,8 °C 18,3 °C 0,0 km/h (0 Bft) 67 %
_ Min-Zeit 12:30 07:00 05:30 07:00 06:00 08:00 08:00 09:00 08:00 19:00 19:00 15:30 23:30 20:00 20:00 19:30 19:30 17:30 - 19:00 - - - - - - 07:00 07:00 19:00 02:30
Minimum _ 22,3 °C 11,7 °C 11,7 °C 11,7 °C 12,2 °C 13,9 °C 13,9 °C 15,6 °C 16,1 °C 16,7 °C 43 % 63 % 0 lf 18 cb 97 cb 40 cb 16 cb 1015,2 hPa - 0,0 km/h (0 Bft) - - - - - - 9,7 °C 11,8 °C 0,0 km/h (0 Bft) 63 %
_ Max-Zeit 19:00 17:00 16:30 16:30 17:00 13:30 13:30 16:00 20:30 02:30 13:00 05:30 20:30 19:00 19:00 10:30 19:00 23:00 19:00 00:00 - - 09:30 14:00 13:30 13:30 18:00 16:30 00:30 10:00
Maximum _ 24,4 °C 24,6 °C 31,1 °C 23,8 °C 24,6 °C 21,7 °C 21,7 °C 18,3 °C 17,2 °C 17,2 °C 50 % 88 % 2 lf 80 cb 127 cb 45 cb 20 cb 1018,4 hPa 0,0 l/m² 3,2 km/h
N (1 Bft)
- - 30 min 0,381 mm 3,5 UV-I 598 W/m² 17,4 °C 24,3 °C 14,5 km/h
N (3 Bft)
88 %
Durchschnitt _ 23,8 °C 16,8 °C 16,8 °C 16,4 °C 17,2 °C 17,0 °C 17,0 °C 16,9 °C 16,6 °C 16,9 °C 46 % 79 % 1 lf 26 cb 105 cb 44 cb 18 cb 1017,4 hPa #0,0 l/m² 1,9 km/h (1 Bft) N - #8:30 h #2,489 mm 2,0 UV-I 344 W/m² 13,0 °C 16,8 °C 8,1 km/h (2 Bft) 78 %
copy; 2009 Dieter Kraft